PORT of CHALKI

کشور: Greece کشور: Greece (GR)
طول و عرض جغرافیایی: 36.221375° / 27.615645° نمایش بر روی نقشه نمایش بر روی نقشه
ساعت محلی:  UTC +3
UN/LOCODE: GRHAL

ورود و خروج تازه


اسم شناور
رسیدن به مقصد (UTC)
رسیدن به مقصد (LT)
خروج کشتی (UTC)
خروج کشتی (LT)
Vessel Type: شناور مسافربر  FEDON 2014-09-21 09:24:00 2014-09-21 12:24:00 2014-09-21 13:07:00 2014-09-21 16:07:00
Vessel Type: شناور مسافربر  PREVELIS 2014-09-21 02:01:00 2014-09-21 05:01:00 2014-09-21 02:23:00 2014-09-21 05:23:00
Vessel Type: شناور مسافربر  PREVELIS 2014-09-20 20:00:00 2014-09-20 23:00:00 2014-09-20 20:16:00 2014-09-20 23:16:00
Vessel Type: تفریحی یا چیزه دیگر  VOLARE 2014-09-18 12:47:00 2014-09-18 15:47:00 2014-09-20 03:52:00 2014-09-20 06:52:00
Vessel Type: شناور مسافربر  FEDON 2014-09-18 07:05:00 2014-09-18 10:05:00 2014-09-18 13:08:00 2014-09-18 16:08:00
Vessel Type: شناور مسافربر  PREVELIS 2014-09-18 04:10:00 2014-09-18 07:10:00 2014-09-18 04:24:00 2014-09-18 07:24:00
Vessel Type: تفریحی یا چیزه دیگر  SEALION 2014-09-16 10:47:00 2014-09-16 13:47:00 2014-09-18 04:21:00 2014-09-18 07:21:00
Vessel Type: شناور مسافربر  PREVELIS 2014-09-17 15:49:00 2014-09-17 18:49:00 2014-09-17 16:03:00 2014-09-17 19:03:00
Vessel Type: شناور مسافربر  FEDON 2014-09-17 07:10:00 2014-09-17 10:10:00 2014-09-17 13:04:00 2014-09-17 16:04:00
Vessel Type: قایق تند رو  DODEKANISOS EXPRESS 2014-09-16 13:31:00 2014-09-16 16:31:00 2014-09-16 13:42:00 2014-09-16 16:42:00

منتظررسیدن


اسم شناور
Scheduled Arrival (UTC)
برنامه ورود به ساعت محلی
تخمین زمان رسیدن (UTC)
تخمین زمان رسیدن به ساعت محلی
هیچ ثبتی یافت نشد

Wind Forecast


    
ساعت جهانی
سرعت
Direction
Temperature
2014-09-21 18:00:00 18 knots 302° 24°C
2014-09-21 21:00:00 16 knots 310° 24°C
2014-09-22 00:00:00 16 knots 318° 24°C
2014-09-22 03:00:00 15 knots 319° 24°C
2014-09-22 06:00:00 14 knots 313° 24°C
2014-09-22 09:00:00 14 knots 294° 24°C
2014-09-22 12:00:00 15 knots 283° 24°C
2014-09-22 15:00:00 12 knots 271° 24°C
2014-09-22 18:00:00 13 knots 263° 24°C
2014-09-22 21:00:00 11 knots 267° 24°C
2014-09-23 00:00:00 8 knots 267° 23°C
2014-09-23 03:00:00 6 knots 252° 23°C
2014-09-23 06:00:00 8 knots 245° 23°C
2014-09-23 09:00:00 9 knots 232° 23°C
2014-09-23 12:00:00 11 knots 244° 24°C
2014-09-23 15:00:00 14 knots 244° 25°C
2014-09-23 18:00:00 17 knots 264° 25°C